createdAt,value
2022-11-20T00:00:48.797Z,2.30
2022-11-20T00:01:50.624Z,2.20
2022-11-20T00:02:52.350Z,2.45
2022-11-20T00:03:56.364Z,2.20
2022-11-20T00:04:58.843Z,2.50
2022-11-20T00:06:02.324Z,2.15
2022-11-20T00:07:04.190Z,2.30
2022-11-20T00:08:05.995Z,2.60
2022-11-20T00:09:07.753Z,2.28
2022-11-20T00:10:09.802Z,2.70
2022-11-20T00:11:17.346Z,2.10
2022-11-20T00:12:19.026Z,2.30
2022-11-20T00:13:20.719Z,2.53
2022-11-20T00:14:22.472Z,2.53
2022-11-20T00:15:24.164Z,2.33
2022-11-20T00:16:28.428Z,2.13
2022-11-20T00:17:30.262Z,2.55
2022-11-20T00:18:33.381Z,2.42
2022-11-20T00:19:35.107Z,2.63
2022-11-20T00:20:36.780Z,2.35
2022-11-20T00:21:38.511Z,2.28
2022-11-20T00:22:40.577Z,2.60
2022-11-20T00:23:43.348Z,2.38
2022-11-20T00:24:45.014Z,2.45
2022-11-20T00:25:46.863Z,2.42
2022-11-20T00:26:48.727Z,2.22
2022-11-20T00:27:51.589Z,2.50
2022-11-20T00:29:01.468Z,2.10
2022-11-20T00:30:03.384Z,2.30
2022-11-20T00:31:08.314Z,2.50
2022-11-20T00:32:10.041Z,2.42
2022-11-20T00:33:11.861Z,2.45
2022-11-20T00:34:13.538Z,2.58
2022-11-20T00:35:15.277Z,2.28
2022-11-20T00:36:19.745Z,2.33
2022-11-20T00:37:21.405Z,2.30
2022-11-20T00:38:23.072Z,2.03
2022-11-20T00:39:24.899Z,2.10
2022-11-20T00:40:26.665Z,2.33
2022-11-20T00:41:30.123Z,2.30
2022-11-20T00:42:33.756Z,2.28
2022-11-20T00:43:35.818Z,2.22
2022-11-20T00:44:37.525Z,2.20
2022-11-20T00:45:39.185Z,2.30
2022-11-20T00:46:40.892Z,1.85
2022-11-20T00:47:42.701Z,2.30
2022-11-20T00:48:45.756Z,2.10
2022-11-20T00:49:47.513Z,2.20
2022-11-20T00:50:49.275Z,2.28
2022-11-20T00:51:51.168Z,2.20
2022-11-20T00:52:53.046Z,2.45
2022-11-20T00:54:00.893Z,2.05
2022-11-20T00:55:02.716Z,2.40
2022-11-20T00:56:11.278Z,2.30
2022-11-20T00:57:12.976Z,2.40
2022-11-20T00:58:14.661Z,2.05
2022-11-20T00:59:16.392Z,2.28
2022-11-20T01:00:18.456Z,2.63
2022-11-20T01:01:23.032Z,2.40
2022-11-20T01:02:24.805Z,2.33
2022-11-20T01:03:27.254Z,2.25
2022-11-20T01:04:29.086Z,2.17
2022-11-20T01:05:35.700Z,2.08
2022-11-20T01:06:38.998Z,1.90
2022-11-20T01:07:41.660Z,2.20
2022-11-20T01:08:43.986Z,2.40
2022-11-20T01:09:45.701Z,2.10
2022-11-20T01:10:47.456Z,2.03
2022-11-20T01:11:49.317Z,1.98
2022-11-20T01:13:10.933Z,2.42
2022-11-20T01:14:18.966Z,2.83
2022-11-20T01:15:20.673Z,2.40
2022-11-20T01:16:34.330Z,2.60
2022-11-20T01:17:36.128Z,2.58
2022-11-20T01:18:39.728Z,2.30
2022-11-20T01:19:41.469Z,3.10
2022-11-20T01:20:43.161Z,3.17
2022-11-20T01:21:46.183Z,3.55
2022-11-20T01:22:47.913Z,3.25
2022-11-20T01:23:50.769Z,3.65
2022-11-20T01:24:52.452Z,3.20
2022-11-20T01:25:54.124Z,3.38
2022-11-20T01:26:55.840Z,3.70
2022-11-20T01:27:57.633Z,3.53
2022-11-20T01:29:00.352Z,3.30
2022-11-20T01:30:02.402Z,3.38
2022-11-20T01:31:15.807Z,3.40
2022-11-20T01:32:17.781Z,3.38
2022-11-20T01:33:19.512Z,3.38
2022-11-20T01:34:23.237Z,3.35
2022-11-20T01:35:24.951Z,3.20
2022-11-20T01:36:29.129Z,2.90
2022-11-20T01:37:30.810Z,3.10
2022-11-20T01:38:32.674Z,3.20
2022-11-20T01:39:34.381Z,2.95
2022-11-20T01:40:36.066Z,3.22
2022-11-20T01:41:56.753Z,2.88
2022-11-20T01:43:23.584Z,2.78
2022-11-20T01:44:52.488Z,2.72
2022-11-20T01:46:01.604Z,3.00
2022-11-20T01:47:07.391Z,2.83
2022-11-20T01:48:09.522Z,2.63
2022-11-20T01:49:26.025Z,2.78
2022-11-20T01:50:34.808Z,2.45
2022-11-20T01:51:44.920Z,2.40
2022-11-20T01:52:51.760Z,2.53
2022-11-20T01:53:57.372Z,2.67
2022-11-20T01:55:12.557Z,2.22
2022-11-20T01:56:15.851Z,2.17
2022-11-20T01:57:20.625Z,2.60
2022-11-20T01:58:28.388Z,2.08
2022-11-20T01:59:31.011Z,2.22
2022-11-20T02:00:32.858Z,2.30
2022-11-20T02:01:35.241Z,2.35
2022-11-20T02:02:37.839Z,2.08
2022-11-20T02:03:39.737Z,1.90
2022-11-20T02:04:41.601Z,2.38
2022-11-20T02:05:51.488Z,1.80
2022-11-20T02:07:00.489Z,2.03
2022-11-20T02:08:04.862Z,1.90
2022-11-20T02:09:06.808Z,2.30
2022-11-20T02:10:08.710Z,1.98
2022-11-20T02:11:10.566Z,2.03
2022-11-20T02:12:33.518Z,1.90
2022-11-20T02:13:45.061Z,2.05
2022-11-20T02:14:46.838Z,2.10
2022-11-20T02:15:49.453Z,2.10
2022-11-20T02:16:51.762Z,1.65
2022-11-20T02:17:54.351Z,1.90
2022-11-20T02:18:58.310Z,1.90
2022-11-20T02:19:59.997Z,2.15
2022-11-20T02:21:14.928Z,2.10
2022-11-20T02:22:31.934Z,1.48
2022-11-20T02:23:45.289Z,1.67
2022-11-20T02:24:48.758Z,1.77
2022-11-20T02:25:51.665Z,1.70
2022-11-20T02:26:57.425Z,1.98
2022-11-20T02:27:59.264Z,1.60
2022-11-20T02:29:03.229Z,1.50
2022-11-20T02:30:08.666Z,1.42
2022-11-20T02:31:10.440Z,1.33
2022-11-20T02:32:28.448Z,1.58
2022-11-20T02:33:30.126Z,1.55
2022-11-20T02:34:32.460Z,1.50
2022-11-20T02:35:34.081Z,1.40
2022-11-20T02:36:37.709Z,1.33
2022-11-20T02:37:41.690Z,1.33
2022-11-20T02:38:44.712Z,1.33
2022-11-20T02:39:51.207Z,1.40
2022-11-20T02:40:55.664Z,1.23
2022-11-20T02:41:58.249Z,1.25
2022-11-20T02:43:00.118Z,1.40
2022-11-20T02:44:02.392Z,1.63
2022-11-20T02:45:05.804Z,1.35
2022-11-20T02:46:10.707Z,1.40
2022-11-20T02:47:12.452Z,1.13
2022-11-20T02:48:14.301Z,1.30
2022-11-20T02:49:17.548Z,1.35
2022-11-20T02:50:19.845Z,1.10
2022-11-20T02:51:21.675Z,1.20
2022-11-20T02:52:23.492Z,1.00
2022-11-20T02:53:25.202Z,1.10
2022-11-20T02:54:27.110Z,1.20
2022-11-20T02:55:28.860Z,1.15
2022-11-20T02:56:30.686Z,1.10
2022-11-20T02:57:32.375Z,1.30
2022-11-20T02:58:34.059Z,1.00
2022-11-20T02:59:36.024Z,0.98
2022-11-20T03:00:37.841Z,1.15
2022-11-20T03:01:40.037Z,1.30
2022-11-20T03:02:41.850Z,1.20
2022-11-20T03:03:43.692Z,1.20
2022-11-20T03:04:45.404Z,1.20
2022-11-20T03:05:47.178Z,1.50
2022-11-20T03:06:48.842Z,1.02
2022-11-20T03:07:50.653Z,1.25
2022-11-20T03:08:52.447Z,1.20
2022-11-20T03:09:54.185Z,0.90
2022-11-20T03:10:55.930Z,1.10
2022-11-20T03:11:57.645Z,1.13
2022-11-20T03:12:59.337Z,1.20
2022-11-20T03:14:05.665Z,1.10
2022-11-20T03:15:08.014Z,1.10
2022-11-20T03:16:12.889Z,1.30
2022-11-20T03:17:14.634Z,1.20
2022-11-20T03:18:16.504Z,1.10
2022-11-20T03:19:18.329Z,1.30
2022-11-20T03:20:20.956Z,1.10
2022-11-20T03:21:22.857Z,1.10
2022-11-20T03:22:24.618Z,1.05
2022-11-20T03:23:26.844Z,1.00
2022-11-20T03:24:28.545Z,1.08
2022-11-20T03:25:30.257Z,1.10
2022-11-20T03:26:32.056Z,1.10
2022-11-20T03:27:35.583Z,1.05
2022-11-20T03:28:37.477Z,1.00
2022-11-20T03:29:39.150Z,0.93
2022-11-20T03:30:40.836Z,0.90
2022-11-20T03:31:42.851Z,0.80
2022-11-20T03:32:44.660Z,1.00
2022-11-20T03:33:46.513Z,1.02
2022-11-20T03:34:48.227Z,0.90
2022-11-20T03:35:49.928Z,0.70
2022-11-20T03:36:51.624Z,0.95
2022-11-20T03:37:53.425Z,1.08
2022-11-20T03:38:56.688Z,0.73
2022-11-20T03:39:58.386Z,0.85
2022-11-20T03:41:06.206Z,0.85
2022-11-20T03:42:27.891Z,0.88
2022-11-20T03:43:29.777Z,0.60
2022-11-20T03:44:31.444Z,0.85
2022-11-20T03:45:33.138Z,0.70
2022-11-20T03:46:34.972Z,0.80
2022-11-20T03:47:36.871Z,0.80
2022-11-20T03:48:38.521Z,0.70
2022-11-20T03:49:40.229Z,0.70
2022-11-20T03:50:41.897Z,0.98
2022-11-20T03:51:43.588Z,0.80
2022-11-20T03:52:45.463Z,0.77
2022-11-20T03:53:48.389Z,0.70
2022-11-20T03:54:50.117Z,0.68
2022-11-20T03:55:52.661Z,0.50
2022-11-20T03:56:54.323Z,0.60
2022-11-20T03:57:56.098Z,0.60
2022-11-20T03:58:58.218Z,0.70
2022-11-20T04:00:00.290Z,0.70
2022-11-20T04:01:07.417Z,0.60
2022-11-20T04:02:09.128Z,0.80
2022-11-20T04:03:10.841Z,0.70
2022-11-20T04:04:12.582Z,0.68
2022-11-20T04:05:14.538Z,0.50
2022-11-20T04:06:21.807Z,0.60
2022-11-20T04:07:23.628Z,0.60
2022-11-20T04:08:25.371Z,0.68
2022-11-20T04:09:27.268Z,0.50
2022-11-20T04:10:29.050Z,0.70
2022-11-20T04:11:37.650Z,0.60
2022-11-20T04:12:39.363Z,0.63
2022-11-20T04:13:42.223Z,0.50
2022-11-20T04:14:44.003Z,0.50
2022-11-20T04:15:45.666Z,0.52
2022-11-20T04:16:47.464Z,0.60
2022-11-20T04:17:49.174Z,0.60
2022-11-20T04:18:59.261Z,0.60
2022-11-20T04:20:00.970Z,0.45
2022-11-20T04:21:03.689Z,0.50
2022-11-20T04:22:05.535Z,0.55
2022-11-20T04:23:07.241Z,0.50
2022-11-20T04:24:09.241Z,0.52
2022-11-20T04:25:10.986Z,0.40
2022-11-20T04:26:13.788Z,0.57
2022-11-20T04:27:15.526Z,0.40
2022-11-20T04:28:17.308Z,0.50
2022-11-20T04:29:19.405Z,0.50
2022-11-20T04:30:21.413Z,0.63
2022-11-20T04:31:26.511Z,0.60
2022-11-20T04:32:28.355Z,0.60
2022-11-20T04:33:33.880Z,0.50
2022-11-20T04:34:35.998Z,0.40
2022-11-20T04:35:38.567Z,0.50
2022-11-20T04:36:40.346Z,0.60
2022-11-20T04:37:42.032Z,0.70
2022-11-20T04:38:44.456Z,0.40
2022-11-20T04:39:46.270Z,0.43
2022-11-20T04:40:48.022Z,0.40
2022-11-20T04:42:09.740Z,0.30
2022-11-20T04:43:11.404Z,0.43
2022-11-20T04:44:13.308Z,0.35
2022-11-20T04:45:15.033Z,0.35
2022-11-20T04:46:18.694Z,0.38
2022-11-20T04:47:20.554Z,0.40
2022-11-20T04:48:22.549Z,0.40
2022-11-20T04:49:24.671Z,0.35
2022-11-20T04:50:26.626Z,0.40
2022-11-20T04:51:28.848Z,0.52
2022-11-20T04:52:30.545Z,0.50
2022-11-20T04:53:32.352Z,0.30
2022-11-20T04:54:34.020Z,0.60
2022-11-20T04:55:35.711Z,0.40
2022-11-20T04:56:37.471Z,0.40
2022-11-20T04:57:39.381Z,0.40
2022-11-20T04:58:41.705Z,0.32
2022-11-20T04:59:43.492Z,0.20
2022-11-20T05:00:45.245Z,0.38
2022-11-20T05:01:47.002Z,0.43
2022-11-20T05:02:48.730Z,0.47
2022-11-20T05:03:50.889Z,0.40
2022-11-20T05:04:52.610Z,0.40
2022-11-20T05:05:54.275Z,0.30
2022-11-20T05:06:55.984Z,0.30
2022-11-20T05:07:58.837Z,0.38
2022-11-20T05:09:01.992Z,0.40
2022-11-20T05:10:04.025Z,0.30
2022-11-20T05:11:17.705Z,0.30
2022-11-20T05:12:19.555Z,0.30
2022-11-20T05:13:21.265Z,0.30
2022-11-20T05:14:22.939Z,0.20
2022-11-20T05:15:24.863Z,0.30
2022-11-20T05:16:26.945Z,0.35
2022-11-20T05:17:28.917Z,0.30
2022-11-20T05:18:30.614Z,0.35
2022-11-20T05:19:32.356Z,0.40
2022-11-20T05:20:34.341Z,0.40
2022-11-20T05:21:36.036Z,0.40
2022-11-20T05:22:37.729Z,0.25
2022-11-20T05:23:40.625Z,0.50
2022-11-20T05:24:42.379Z,0.30
2022-11-20T05:25:44.074Z,0.30
2022-11-20T05:26:45.829Z,0.40
2022-11-20T05:27:47.515Z,0.15
2022-11-20T05:28:50.173Z,0.32
2022-11-20T05:29:51.875Z,0.20
2022-11-20T05:30:53.604Z,0.38
2022-11-20T05:31:55.317Z,0.30
2022-11-20T05:32:56.999Z,0.35
2022-11-20T05:33:58.878Z,0.40
2022-11-20T05:35:00.551Z,0.32
2022-11-20T05:36:06.520Z,0.20
2022-11-20T05:37:08.230Z,0.30
2022-11-20T05:38:10.212Z,0.40
2022-11-20T05:39:11.993Z,0.20
2022-11-20T05:40:14.107Z,0.38
2022-11-20T05:41:18.054Z,0.38
2022-11-20T05:42:31.826Z,0.20
2022-11-20T05:43:35.818Z,0.30
2022-11-20T05:44:37.530Z,0.30
2022-11-20T05:45:40.157Z,0.30
2022-11-20T05:46:41.875Z,0.28
2022-11-20T05:47:43.631Z,0.38
2022-11-20T05:48:46.109Z,0.20
2022-11-20T05:49:47.852Z,0.30
2022-11-20T05:50:49.575Z,0.30
2022-11-20T05:51:51.276Z,0.20
2022-11-20T05:52:52.983Z,0.40
2022-11-20T05:53:56.847Z,0.40
2022-11-20T05:54:58.552Z,0.20
2022-11-20T05:56:02.022Z,0.38
2022-11-20T05:57:03.822Z,0.30
2022-11-20T05:58:05.592Z,0.30
2022-11-20T05:59:07.409Z,0.30
2022-11-20T06:00:09.550Z,0.22
2022-11-20T06:01:24.313Z,0.40
2022-11-20T06:02:26.171Z,0.32
2022-11-20T06:03:27.904Z,0.25
2022-11-20T06:04:29.785Z,0.20
2022-11-20T06:05:31.530Z,0.30
2022-11-20T06:06:33.283Z,0.30
2022-11-20T06:07:35.104Z,0.20
2022-11-20T06:08:37.010Z,0.30
2022-11-20T06:09:38.820Z,0.20
2022-11-20T06:10:40.493Z,0.20
2022-11-20T06:11:42.277Z,0.30
2022-11-20T06:12:43.960Z,0.25
2022-11-20T06:13:46.788Z,0.10
2022-11-20T06:14:48.613Z,0.20
2022-11-20T06:15:54.752Z,0.20
2022-11-20T06:16:56.513Z,0.40
2022-11-20T06:17:59.952Z,0.20
2022-11-20T06:19:01.659Z,0.35
2022-11-20T06:20:03.520Z,0.30
2022-11-20T06:21:11.140Z,0.30
2022-11-20T06:22:12.828Z,0.40
2022-11-20T06:23:14.787Z,0.20
2022-11-20T06:24:16.849Z,0.28
2022-11-20T06:25:18.680Z,0.30
2022-11-20T06:26:26.608Z,0.20
2022-11-20T06:27:28.277Z,0.30
2022-11-20T06:28:30.043Z,0.30
2022-11-20T06:29:34.015Z,0.40
2022-11-20T06:30:36.594Z,0.30
2022-11-20T06:31:38.880Z,0.30
2022-11-20T06:32:40.686Z,0.32
2022-11-20T06:33:43.331Z,0.30
2022-11-20T06:34:45.076Z,0.32
2022-11-20T06:35:46.778Z,0.30
2022-11-20T06:36:48.495Z,0.20
2022-11-20T06:37:50.174Z,0.30
2022-11-20T06:38:52.075Z,0.20
2022-11-20T06:39:53.733Z,0.20
2022-11-20T06:40:56.117Z,0.30
2022-11-20T06:41:59.180Z,0.30
2022-11-20T06:43:01.183Z,0.30
2022-11-20T06:44:05.457Z,0.35
2022-11-20T06:45:07.710Z,0.20
2022-11-20T06:46:11.615Z,0.20
2022-11-20T06:47:13.452Z,0.30
2022-11-20T06:48:15.122Z,0.28
2022-11-20T06:49:16.800Z,0.30
2022-11-20T06:50:18.552Z,0.30
2022-11-20T06:51:20.331Z,0.20
2022-11-20T06:52:22.101Z,0.20
2022-11-20T06:53:24.946Z,0.20
2022-11-20T06:54:26.617Z,0.30
2022-11-20T06:55:28.340Z,0.20
2022-11-20T06:56:30.114Z,0.30
2022-11-20T06:57:31.792Z,0.20
2022-11-20T06:58:34.784Z,0.30
2022-11-20T06:59:36.557Z,0.20
2022-11-20T07:00:38.316Z,0.22
2022-11-20T07:01:40.101Z,0.20
2022-11-20T07:02:41.762Z,0.30
2022-11-20T07:03:43.834Z,0.30
2022-11-20T07:04:45.501Z,0.20
2022-11-20T07:05:47.280Z,0.30
2022-11-20T07:06:49.640Z,0.30
2022-11-20T07:07:51.318Z,0.20
2022-11-20T07:08:53.727Z,0.30
2022-11-20T07:09:55.495Z,0.20
2022-11-20T07:11:02.320Z,0.20
2022-11-20T07:12:04.162Z,0.30
2022-11-20T07:13:05.976Z,0.20
2022-11-20T07:14:07.759Z,0.30
2022-11-20T07:15:09.747Z,0.28
2022-11-20T07:16:11.384Z,0.28
2022-11-20T07:17:13.486Z,0.20
2022-11-20T07:18:15.209Z,0.20
2022-11-20T07:19:16.914Z,0.30
2022-11-20T07:20:18.716Z,0.20
2022-11-20T07:21:20.470Z,0.10
2022-11-20T07:22:22.754Z,0.32
2022-11-20T07:23:24.544Z,0.30
2022-11-20T07:24:26.291Z,0.30
2022-11-20T07:25:29.127Z,0.30
2022-11-20T07:26:30.797Z,0.38
2022-11-20T07:27:32.990Z,0.28
2022-11-20T07:28:35.412Z,0.32
2022-11-20T07:29:37.115Z,0.10
2022-11-20T07:30:39.164Z,0.28
2022-11-20T07:31:40.843Z,0.30
2022-11-20T07:32:42.660Z,0.20
2022-11-20T07:33:44.454Z,0.30
2022-11-20T07:34:46.246Z,0.20
2022-11-20T07:35:48.064Z,0.25
2022-11-20T07:36:49.807Z,0.40
2022-11-20T07:37:51.596Z,0.20
2022-11-20T07:38:53.369Z,0.20
2022-11-20T07:39:55.037Z,0.20
2022-11-20T07:40:58.725Z,0.25
2022-11-20T07:42:00.501Z,0.30
2022-11-20T07:43:02.205Z,0.30
2022-11-20T07:44:04.020Z,0.30
2022-11-20T07:45:06.208Z,0.28
2022-11-20T07:46:08.069Z,0.22
2022-11-20T07:47:09.817Z,0.30
2022-11-20T07:48:11.489Z,0.20
2022-11-20T07:49:13.242Z,0.22
2022-11-20T07:50:15.632Z,0.30
2022-11-20T07:51:17.322Z,0.28
2022-11-20T07:52:19.072Z,0.20
2022-11-20T07:53:22.725Z,0.20
2022-11-20T07:54:24.530Z,0.32
2022-11-20T07:55:26.219Z,0.20
2022-11-20T07:56:27.893Z,0.22
2022-11-20T07:57:29.730Z,0.30
2022-11-20T07:58:33.802Z,0.30
2022-11-20T07:59:35.548Z,0.20
2022-11-20T08:00:37.225Z,0.22
2022-11-20T08:01:42.184Z,0.20
2022-11-20T08:02:44.005Z,0.30
2022-11-20T08:03:45.694Z,0.30
2022-11-20T08:04:47.358Z,0.10
2022-11-20T08:05:49.046Z,0.20
2022-11-20T08:06:50.777Z,0.20
2022-11-20T08:07:52.505Z,0.30
2022-11-20T08:08:54.242Z,0.17
2022-11-20T08:09:55.926Z,0.20
2022-11-20T08:11:17.620Z,0.20
2022-11-20T08:12:40.008Z,0.20
2022-11-20T08:14:00.218Z,0.20
2022-11-20T08:15:02.199Z,0.20
2022-11-20T08:16:04.125Z,0.20
2022-11-20T08:17:05.820Z,0.20
2022-11-20T08:19:31.936Z,0.20
2022-11-20T08:20:34.334Z,0.25
2022-11-20T08:21:38.338Z,0.15
2022-11-20T08:22:40.426Z,0.10
2022-11-20T08:23:42.142Z,0.20
2022-11-20T08:24:43.834Z,0.20
2022-11-20T08:25:50.783Z,0.15
2022-11-20T08:26:52.476Z,0.20
2022-11-20T08:27:59.263Z,0.20
2022-11-20T08:29:02.061Z,0.25
2022-11-20T08:30:05.611Z,0.20
2022-11-20T08:31:07.363Z,0.17
2022-11-20T08:32:09.144Z,0.20
2022-11-20T08:33:10.833Z,0.22
2022-11-20T08:34:17.573Z,0.30
2022-11-20T08:35:21.691Z,0.20
2022-11-20T08:36:24.966Z,0.20
2022-11-20T08:37:26.669Z,0.30
2022-11-20T08:38:28.457Z,0.20
2022-11-20T08:39:30.246Z,0.28
2022-11-20T08:40:32.817Z,0.20
2022-11-20T08:41:34.537Z,0.22
2022-11-20T08:42:36.254Z,0.20
2022-11-20T08:43:37.920Z,0.20
2022-11-20T08:44:39.681Z,0.20
2022-11-20T08:45:41.367Z,0.20
2022-11-20T08:46:44.780Z,0.17
2022-11-20T08:47:47.230Z,0.43
2022-11-20T08:48:49.137Z,0.50
2022-11-20T08:49:50.928Z,0.22
2022-11-20T08:50:52.597Z,0.40
2022-11-20T08:51:56.231Z,0.20
2022-11-20T08:53:04.494Z,0.20
2022-11-20T08:54:07.024Z,0.20
2022-11-20T08:55:09.330Z,0.30
2022-11-20T08:56:11.328Z,0.20
2022-11-20T08:57:13.048Z,0.30
2022-11-20T08:58:14.832Z,0.20
2022-11-20T08:59:31.333Z,0.30
2022-11-20T09:00:38.345Z,0.22
2022-11-20T09:01:40.500Z,0.20
2022-11-20T09:02:42.190Z,0.30
2022-11-20T09:03:43.902Z,0.20
2022-11-20T09:04:45.663Z,0.30
2022-11-20T09:05:47.505Z,0.20
2022-11-20T09:06:52.106Z,0.20
2022-11-20T09:07:58.171Z,0.28
2022-11-20T09:09:06.170Z,0.30
2022-11-20T09:10:23.604Z,0.20
2022-11-20T09:11:26.090Z,0.20
2022-11-20T09:12:27.824Z,0.20
2022-11-20T09:13:30.690Z,0.30
2022-11-20T09:14:32.912Z,0.30
2022-11-20T09:15:35.128Z,0.30
2022-11-20T09:16:36.807Z,0.30
2022-11-20T09:17:38.481Z,0.30
2022-11-20T09:18:40.326Z,0.30
2022-11-20T09:19:42.919Z,0.30
2022-11-20T09:20:45.263Z,0.30
2022-11-20T09:21:46.957Z,0.30
2022-11-20T09:22:48.670Z,0.20
2022-11-20T09:23:50.393Z,0.20
2022-11-20T09:24:52.466Z,0.20
2022-11-20T09:25:56.747Z,0.20
2022-11-20T09:26:58.485Z,0.30
2022-11-20T09:28:00.189Z,0.30
2022-11-20T09:29:01.878Z,0.30
2022-11-20T09:30:04.495Z,0.20
2022-11-20T09:31:11.135Z,0.20
2022-11-20T09:32:12.920Z,0.38
2022-11-20T09:33:14.680Z,0.38
2022-11-20T09:34:16.724Z,0.30
2022-11-20T09:35:19.130Z,0.20
2022-11-20T09:36:20.977Z,0.20
2022-11-20T09:37:22.835Z,0.30
2022-11-20T09:38:24.645Z,0.20
2022-11-20T09:39:26.632Z,0.30
2022-11-20T09:40:30.528Z,0.20
2022-11-20T09:41:44.060Z,0.40
2022-11-20T09:43:00.980Z,0.30
2022-11-20T09:44:25.346Z,0.30
2022-11-20T09:45:41.837Z,0.20
2022-11-20T09:47:14.603Z,0.20
2022-11-20T09:48:27.984Z,0.20
2022-11-20T09:49:59.434Z,0.30
2022-11-20T09:51:19.411Z,0.22
2022-11-20T09:52:39.341Z,0.20
2022-11-20T09:54:06.347Z,0.30
2022-11-20T09:55:13.020Z,0.20
2022-11-20T09:56:18.413Z,0.20
2022-11-20T09:57:27.709Z,0.20
2022-11-20T09:58:42.904Z,0.20
2022-11-20T09:59:49.254Z,0.30
2022-11-20T10:00:52.427Z,0.25
2022-11-20T10:01:56.387Z,0.20
2022-11-20T10:03:07.442Z,0.20
2022-11-20T10:04:19.070Z,0.40
2022-11-20T10:05:49.022Z,0.30
2022-11-20T10:07:17.439Z,0.17
2022-11-20T10:08:33.362Z,0.10
2022-11-20T10:09:44.126Z,0.25
2022-11-20T10:11:16.671Z,0.30
2022-11-20T10:12:53.042Z,0.20
2022-11-20T10:14:32.188Z,0.20
2022-11-20T10:15:37.707Z,0.30
2022-11-20T10:17:11.928Z,0.20
2022-11-20T10:18:28.545Z,0.20
2022-11-20T10:20:00.149Z,0.20
2022-11-20T10:21:30.407Z,0.20
2022-11-20T10:22:38.380Z,0.17
2022-11-20T10:24:20.804Z,0.30
2022-11-20T10:25:45.182Z,0.30
2022-11-20T10:27:14.465Z,0.30
2022-11-20T10:28:28.739Z,0.20
2022-11-20T10:29:34.956Z,0.30
2022-11-20T10:30:43.527Z,0.30
2022-11-20T10:31:55.744Z,0.30
2022-11-20T10:33:05.950Z,0.20
2022-11-20T10:34:16.885Z,0.20
2022-11-20T10:35:37.034Z,0.30
2022-11-20T10:36:50.801Z,0.30
2022-11-20T10:37:59.520Z,0.20
2022-11-20T10:39:20.062Z,0.20
2022-11-20T10:40:33.466Z,0.20
2022-11-20T10:41:41.376Z,0.20
2022-11-20T10:42:52.216Z,0.20
2022-11-20T10:44:10.855Z,0.20
2022-11-20T10:45:24.785Z,0.28
2022-11-20T10:46:28.689Z,0.20
2022-11-20T10:47:32.460Z,0.10
2022-11-20T10:48:34.622Z,0.20
2022-11-20T10:49:36.734Z,0.20
2022-11-20T10:50:48.126Z,0.10
2022-11-20T10:52:05.832Z,0.20
2022-11-20T10:53:16.921Z,0.20
2022-11-20T10:54:21.397Z,0.10
2022-11-20T10:55:38.343Z,0.20
2022-11-20T10:56:50.206Z,0.20
2022-11-20T10:58:19.844Z,0.30
2022-11-20T10:59:46.827Z,0.20
2022-11-20T11:00:48.559Z,0.10
2022-11-20T11:01:50.261Z,0.15
2022-11-20T11:02:54.612Z,0.20
2022-11-20T11:03:58.290Z,0.20
2022-11-20T11:05:14.389Z,0.30
2022-11-20T11:06:57.768Z,0.30
2022-11-20T11:08:00.292Z,0.30
2022-11-20T11:09:10.092Z,0.20
2022-11-20T11:10:16.648Z,0.30
2022-11-20T11:11:28.777Z,0.20
2022-11-20T11:12:30.451Z,0.20
2022-11-20T11:13:32.441Z,0.10
2022-11-20T11:14:47.169Z,0.20
2022-11-20T11:15:48.956Z,0.20
2022-11-20T11:16:58.648Z,0.20
2022-11-20T11:18:00.390Z,0.20
2022-11-20T11:19:13.808Z,0.30
2022-11-20T11:20:19.764Z,0.20
2022-11-20T11:21:25.848Z,0.10
2022-11-20T11:22:30.421Z,0.20
2022-11-20T11:23:35.793Z,0.10
2022-11-20T11:24:42.744Z,0.20
2022-11-20T11:25:59.538Z,0.20
2022-11-20T11:27:16.830Z,0.15
2022-11-20T11:28:19.438Z,0.28
2022-11-20T11:29:21.542Z,0.20
2022-11-20T11:30:25.409Z,0.20
2022-11-20T11:31:29.230Z,0.28
2022-11-20T11:32:30.963Z,0.20
2022-11-20T11:33:36.934Z,0.10
2022-11-20T11:34:38.772Z,0.15
2022-11-20T11:35:51.541Z,0.20
2022-11-20T11:36:58.285Z,0.30
2022-11-20T11:38:08.502Z,0.20
2022-11-20T11:39:17.062Z,0.20
2022-11-20T11:40:25.063Z,0.17
2022-11-20T11:41:32.961Z,0.30
2022-11-20T11:42:34.889Z,0.15
2022-11-20T11:43:56.902Z,0.20
2022-11-20T11:45:07.187Z,0.20
2022-11-20T11:46:36.440Z,0.20
2022-11-20T11:47:44.527Z,0.20
2022-11-20T11:49:10.884Z,0.20
2022-11-20T11:50:12.728Z,0.20
2022-11-20T11:51:21.762Z,0.15
2022-11-20T11:52:26.470Z,0.30
2022-11-20T11:53:30.120Z,0.35
2022-11-20T11:54:35.971Z,0.17
2022-11-20T11:55:50.649Z,0.30
2022-11-20T11:56:52.747Z,0.30
2022-11-20T11:58:03.060Z,0.30
2022-11-20T11:59:13.054Z,0.15
2022-11-20T12:00:17.998Z,0.22
2022-11-20T12:01:34.366Z,0.20
2022-11-20T12:02:42.210Z,0.17
2022-11-20T12:03:45.720Z,0.17
2022-11-20T12:04:51.828Z,0.20
2022-11-20T12:06:02.884Z,0.40
2022-11-20T12:07:44.975Z,0.10
2022-11-20T12:08:57.050Z,0.20
2022-11-20T12:09:59.592Z,0.20
2022-11-20T12:11:01.268Z,0.10
2022-11-20T12:12:18.909Z,0.20
2022-11-20T12:13:26.586Z,0.22
2022-11-20T12:14:35.403Z,0.25
2022-11-20T12:15:39.253Z,0.28
2022-11-20T12:16:41.428Z,0.20
2022-11-20T12:17:43.258Z,0.20
2022-11-20T12:18:49.754Z,0.10
2022-11-20T12:19:52.226Z,0.20
2022-11-20T12:21:14.015Z,0.20
2022-11-20T12:22:34.379Z,0.30
2022-11-20T12:23:57.594Z,0.20
2022-11-20T12:25:17.945Z,0.20
2022-11-20T12:26:34.377Z,0.30
2022-11-20T12:27:54.112Z,0.20
2022-11-20T12:29:15.193Z,0.20
2022-11-20T12:30:19.442Z,0.25
2022-11-20T12:31:35.012Z,0.25
2022-11-20T12:32:52.029Z,0.28
2022-11-20T12:34:25.266Z,0.10
2022-11-20T12:36:28.750Z,0.30
2022-11-20T12:37:49.137Z,0.25
2022-11-20T12:39:00.123Z,0.28
2022-11-20T12:40:42.214Z,0.10
2022-11-20T12:42:31.871Z,0.20
2022-11-20T12:44:02.452Z,0.20
2022-11-20T12:45:10.910Z,0.20
2022-11-20T12:46:34.085Z,0.20
2022-11-20T12:47:57.275Z,0.20
2022-11-20T12:49:04.795Z,0.20
2022-11-20T12:50:24.833Z,0.30
2022-11-20T12:51:35.547Z,0.43
2022-11-20T12:53:09.334Z,0.25
2022-11-20T12:54:35.954Z,0.20
2022-11-20T12:56:04.267Z,0.20
2022-11-20T12:57:23.064Z,0.20
2022-11-20T12:58:45.590Z,0.10
2022-11-20T13:00:05.864Z,0.20
2022-11-20T13:01:38.046Z,0.20
2022-11-20T13:02:59.153Z,0.20
2022-11-20T13:04:16.682Z,0.30
2022-11-20T13:05:25.330Z,0.30
2022-11-20T13:06:27.253Z,0.30
2022-11-20T13:07:30.579Z,0.22
2022-11-20T13:08:45.191Z,0.10
2022-11-20T13:09:49.761Z,0.10
2022-11-20T13:11:23.200Z,0.45
2022-11-20T13:13:06.136Z,0.30
2022-11-20T13:14:33.172Z,0.30
2022-11-20T13:15:46.608Z,0.13
2022-11-20T13:16:57.293Z,0.30
2022-11-20T13:18:02.507Z,0.20
2022-11-20T13:19:05.988Z,0.40
2022-11-20T13:20:15.951Z,0.40
2022-11-20T13:21:38.299Z,0.40
2022-11-20T13:22:45.045Z,0.20
2022-11-20T13:23:46.950Z,0.30
2022-11-20T13:24:52.883Z,0.30
2022-11-20T13:26:07.138Z,0.38
2022-11-20T13:27:08.767Z,0.30
2022-11-20T13:28:10.569Z,0.32
2022-11-20T13:29:18.659Z,0.30
2022-11-20T13:30:25.685Z,0.30
2022-11-20T13:31:32.421Z,0.20
2022-11-20T13:32:34.317Z,0.20
2022-11-20T13:33:39.113Z,0.20
2022-11-20T13:34:58.913Z,0.22
2022-11-20T13:36:20.941Z,0.20
2022-11-20T13:37:35.073Z,0.40
2022-11-20T13:38:51.997Z,0.40
2022-11-20T13:39:53.764Z,0.30
2022-11-20T13:40:58.968Z,0.35
2022-11-20T13:42:29.008Z,0.30
2022-11-20T13:43:41.636Z,0.20
2022-11-20T13:44:48.037Z,0.20
2022-11-20T13:46:16.253Z,0.30
2022-11-20T13:47:23.705Z,0.40
2022-11-20T13:48:30.313Z,0.20
2022-11-20T13:49:45.189Z,0.32
2022-11-20T13:51:02.511Z,0.30
2022-11-20T13:52:48.803Z,0.10
2022-11-20T13:54:25.765Z,0.30
2022-11-20T13:55:34.710Z,0.20
2022-11-20T13:56:51.440Z,0.38
2022-11-20T13:58:03.686Z,0.20
2022-11-20T13:59:39.234Z,0.22
2022-11-20T14:00:57.770Z,0.20
2022-11-20T14:02:01.924Z,0.20
2022-11-20T14:03:19.111Z,0.20
2022-11-20T14:04:31.089Z,0.30
2022-11-20T14:05:37.310Z,0.25
2022-11-20T14:06:47.817Z,0.50
2022-11-20T14:07:51.187Z,0.20
2022-11-20T14:08:53.141Z,0.30
2022-11-20T14:09:57.053Z,0.38
2022-11-20T14:11:22.374Z,0.30
2022-11-20T14:12:32.392Z,0.30
2022-11-20T14:13:34.207Z,0.25
2022-11-20T14:14:37.444Z,0.32
2022-11-20T14:15:44.910Z,0.30
2022-11-20T14:16:48.543Z,0.30
2022-11-20T14:17:50.326Z,0.30
2022-11-20T14:18:52.226Z,0.40
2022-11-20T14:19:54.936Z,0.40
2022-11-20T14:20:56.744Z,0.30
2022-11-20T14:22:19.979Z,0.38
2022-11-20T14:23:30.485Z,0.50
2022-11-20T14:24:32.566Z,0.30
2022-11-20T14:25:34.337Z,0.20
2022-11-20T14:26:37.367Z,0.35
2022-11-20T14:27:42.088Z,0.30
2022-11-20T14:28:43.844Z,0.30
2022-11-20T14:29:48.484Z,0.20
2022-11-20T14:30:51.427Z,0.47
2022-11-20T14:31:55.084Z,0.40
2022-11-20T14:33:02.497Z,0.30
2022-11-20T14:34:04.308Z,0.30
2022-11-20T14:35:12.201Z,0.40
2022-11-20T14:36:19.710Z,0.20
2022-11-20T14:37:29.648Z,0.20
2022-11-20T14:38:33.783Z,0.28
2022-11-20T14:39:37.569Z,0.40
2022-11-20T14:40:39.288Z,0.28
2022-11-20T14:41:52.145Z,0.40
2022-11-20T14:42:54.197Z,0.30
2022-11-20T14:43:58.688Z,0.30